Аэропорт
Ниигата (RJSN)

 RJSN / KIJ

Japan
JP-15
Ниигата
 37.95590, 139.12100  / 29 ft

 RJSN 201200Z 22006KT 9999 FEW040 SCT070 04/01 Q1033
 TAF RJSN 201105Z 2012/2118 20006KT 9999 FEW030 BECMG 2109/2112 16008KT

2020 © VATRUS division (Privacy Policy)